Time;durP1;ratioP1;P1;durP2;ratioP2;P2;SDS_P1;SDS_P2;PMS_P1;PMS_P2;Temp;Humidity;BMP_temperature;BMP_pressure;BME280_temperature;BME280_humidity;BME280_pressure;Samples;Min_cycle;Max_cycle;Signal;HPM_P1;HPM_P2
2021/01/24 00:01:48;;;;;;;42.00;17.95;;;-0.90;98.80;;;;;;4911346;29;20059;-76
2021/01/24 00:04:14;;;;;;;;;;;-0.90;98.80;;;;;;4910624;29;20038;-76
2021/01/24 00:06:40;;;;;;;40.42;16.08;;;-0.90;98.90;;;;;;4910852;29;20420;-76
2021/01/24 00:09:05;;;;;;;;;;;-0.80;98.80;;;;;;4908122;29;20037;-77
2021/01/24 00:11:31;;;;;;;37.72;16.98;;;-0.80;98.80;;;;;;4922476;29;20349;-77
2021/01/24 00:13:56;;;;;;;40.78;18.83;;;-0.80;98.80;;;;;;4917353;29;20036;-76
2021/01/24 00:16:22;;;;;;;30.85;17.33;;;-0.80;98.80;;;;;;4909746;29;20128;-76
2021/01/24 00:18:48;;;;;;;;;;;-0.80;98.70;;;;;;4909710;29;20486;-76
2021/01/24 00:21:13;;;;;;;35.22;15.20;;;-0.80;98.80;;;;;;4914744;29;20196;-76
2021/01/24 00:23:39;;;;;;;29.13;14.55;;;-0.80;98.70;;;;;;4911659;29;20039;-76
2021/01/24 00:26:05;;;;;;;32.65;16.73;;;-0.70;98.60;;;;;;4917119;29;20040;-76
2021/01/24 00:28:30;;;;;;;39.65;16.55;;;-0.80;98.50;;;;;;4916867;29;20059;-76
2021/01/24 00:30:56;;;;;;;30.05;16.58;;;-0.80;98.50;;;;;;4916416;29;20035;-77
2021/01/24 00:33:22;;;;;;;37.05;15.38;;;-0.80;98.40;;;;;;4912372;29;20083;-76
2021/01/24 00:35:47;;;;;;;;;;;-0.80;98.30;;;;;;4898845;29;20442;-76
2021/01/24 00:38:13;;;;;;;31.88;14.27;;;-0.80;98.50;;;;;;4901415;29;20270;-77
2021/01/24 00:40:39;;;;;;;30.48;15.18;;;-0.80;98.40;;;;;;4915457;29;20084;-76
2021/01/24 00:43:05;;;;;;;35.72;15.00;;;-0.80;98.30;;;;;;4923280;29;20040;-76
2021/01/24 00:45:30;;;;;;;30.38;14.70;;;-0.70;98.30;;;;;;4907999;29;20482;-76
2021/01/24 00:47:56;;;;;;;26.13;14.88;;;-0.70;98.30;;;;;;4916680;29;20032;-77
2021/01/24 00:50:22;;;;;;;37.63;14.82;;;-0.70;98.40;;;;;;4910602;29;20131;-76
2021/01/24 00:52:47;;;;;;;40.97;16.65;;;-0.70;98.50;;;;;;4916124;29;20036;-76
2021/01/24 00:55:13;;;;;;;34.45;15.27;;;-0.80;98.50;;;;;;4915680;29;20035;-76
2021/01/24 00:57:39;;;;;;;33.97;14.70;;;-0.80;98.50;;;;;;4915543;29;20533;-76
2021/01/24 01:00:05;;;;;;;30.27;14.57;;;-0.80;98.60;;;;;;4914606;29;20024;-76
2021/01/24 01:02:31;;;;;;;34.00;17.00;;;-0.80;98.50;;;;;;4909993;29;20020;-76
2021/01/24 01:04:56;;;;;;;30.65;14.80;;;-0.80;98.60;;;;;;4906582;29;20125;-76
2021/01/24 01:07:22;;;;;;;35.78;14.80;;;-0.80;98.60;;;;;;4911242;29;20039;-76
2021/01/24 01:09:48;;;;;;;28.30;15.02;;;-0.80;98.50;;;;;;4907604;29;20035;-76
2021/01/24 01:12:14;;;;;;;;;;;-0.70;98.50;;;;;;4912911;29;20035;-77
2021/01/24 01:14:39;;;;;;;31.75;14.13;;;-0.70;98.50;;;;;;4916821;29;19911;-77
2021/01/24 01:17:05;;;;;;;30.42;13.68;;;-0.70;98.50;;;;;;4908809;29;20020;-76
2021/01/24 01:19:31;;;;;;;25.55;12.70;;;-0.70;98.40;;;;;;4909721;29;20040;-76
2021/01/24 01:21:56;;;;;;;28.92;12.77;;;-0.70;98.40;;;;;;4914443;29;20031;-76
2021/01/24 01:24:22;;;;;;;23.42;11.30;;;-0.70;98.30;;;;;;4914995;29;20038;-76
2021/01/24 01:26:48;;;;;;;;;;;-0.70;98.20;;;;;;4916267;29;20040;-76
2021/01/24 01:29:13;;;;;;;29.20;10.88;;;-0.60;98.30;;;;;;4914942;29;19959;-77
2021/01/24 01:31:39;;;;;;;18.90;10.18;;;-0.60;98.10;;;;;;4910330;29;20028;-76
2021/01/24 01:34:05;;;;;;;32.08;11.75;;;-0.60;98.10;;;;;;4913064;29;20047;-77
2021/01/24 01:36:33;;;;;;;27.20;11.75;;;-0.60;98.10;;;;;;4915248;29;20024;-76
2021/01/24 01:39:00;;;;;;;27.40;12.02;;;-0.50;98.00;;;;;;4913552;29;20071;-76
2021/01/24 01:41:32;;;;;;;29.30;11.23;;;-0.50;97.90;;;;;;4915345;29;20059;-76
2021/01/24 01:43:59;;;;;;;22.55;11.40;;;-0.50;97.80;;;;;;4912976;29;20024;-77
2021/01/24 01:46:28;;;;;;;;;;;-0.50;97.90;;;;;;4898386;29;20474;-76
2021/01/24 01:48:54;;;;;;;20.95;11.18;;;-0.40;97.70;;;;;;4896702;29;19907;-76
2021/01/24 01:51:20;;;;;;;30.73;12.10;;;-0.40;97.80;;;;;;4914993;29;20016;-76
2021/01/24 01:53:46;;;;;;;24.98;11.15;;;-0.40;97.70;;;;;;4915393;29;20055;-76
2021/01/24 01:56:13;;;;;;;22.23;10.30;;;-0.40;97.60;;;;;;4913879;29;20385;-76
2021/01/24 01:58:39;;;;;;;21.13;10.75;;;-0.40;97.60;;;;;;4914969;29;20028;-76
2021/01/24 02:01:07;;;;;;;;;;;-0.40;97.60;;;;;;4907533;29;20029;-77
2021/01/24 02:03:46;;;;;;;17.85;8.95;;;-0.50;97.60;;;;;;4922880;29;19926;-77
2021/01/24 02:06:22;;;;;;;18.95;9.13;;;-0.40;97.70;;;;;;4928182;29;20076;-77
2021/01/24 02:09:08;;;;;;;23.98;10.55;;;-0.30;97.40;;;;;;4921940;29;20036;-76
2021/01/24 02:11:40;;;;;;;22.70;11.25;;;-0.30;97.30;;;;;;4912506;29;20028;-76
2021/01/24 02:14:22;;;;;;;24.88;9.57;;;-0.30;97.30;;;;;;4912762;29;20036;-77
2021/01/24 02:16:49;;;;;;;20.33;8.40;;;-0.40;97.30;;;;;;4907984;29;20544;-77
2021/01/24 02:19:43;;;;;;;19.48;9.95;;;-0.30;97.40;;;;;;4915419;29;20529;-76
2021/01/24 02:22:12;;;;;;;21.83;10.85;;;-0.20;97.10;;;;;;4895800;29;20032;-77
2021/01/24 02:24:48;;;;;;;22.20;10.32;;;-0.20;97.30;;;;;;4912481;29;20016;-77
2021/01/24 02:27:20;;;;;;;16.85;9.10;;;-0.30;97.40;;;;;;4907338;29;20028;-76
2021/01/24 02:30:16;;;;;;;14.68;7.05;;;-0.10;97.20;;;;;;4913958;29;20032;-77
2021/01/24 02:32:45;;;;;;;22.35;8.85;;;-0.10;97.00;;;;;;4914888;29;20494;-76
2021/01/24 02:35:11;;;;;;;17.35;9.82;;;-0.10;97.00;;;;;;4914323;29;20020;-77
2021/01/24 02:37:38;;;;;;;22.65;10.40;;;-0.10;97.00;;;;;;4928533;29;20161;-76
2021/01/24 02:40:05;;;;;;;35.22;15.88;;;-0.20;97.40;;;;;;4913464;29;20036;-76
2021/01/24 02:42:32;;;;;;;26.13;12.07;;;-0.20;97.60;;;;;;4915002;29;20016;-77
2021/01/24 02:44:58;;;;;;;22.30;10.38;;;-0.30;97.70;;;;;;4913128;29;20406;-77
2021/01/24 02:47:25;;;;;;;20.00;8.85;;;-0.30;98.00;;;;;;4914169;29;20028;-77
2021/01/24 02:49:52;;;;;;;18.83;9.50;;;-0.30;98.00;;;;;;4906012;29;20035;-77
2021/01/24 02:52:18;;;;;;;23.38;9.88;;;-0.30;98.00;;;;;;4910749;29;20111;-77
2021/01/24 02:54:45;;;;;;;21.13;10.18;;;-0.30;97.80;;;;;;4914308;29;20118;-76
2021/01/24 02:57:11;;;;;;;24.33;10.65;;;-0.30;97.80;;;;;;4909590;29;20549;-77
2021/01/24 02:59:37;;;;;;;;;;;-0.30;97.90;;;;;;4906118;29;20035;-76
2021/01/24 03:02:03;;;;;;;16.95;8.93;;;-0.30;98.00;;;;;;4924103;29;19914;-77
2021/01/24 03:04:28;;;;;;;15.45;8.35;;;-0.30;97.90;;;;;;4918025;29;21489;-77
2021/01/24 03:06:54;;;;;;;22.00;9.85;;;-0.30;98.20;;;;;;4925590;29;20032;-77
2021/01/24 03:09:20;;;;;;;21.73;8.52;;;-0.30;98.10;;;;;;4925246;29;20034;-77
2021/01/24 03:11:48;;;;;;;16.35;7.47;;;-0.20;98.20;;;;;;4925454;29;20036;-77
2021/01/24 03:14:34;;;;;;;19.73;8.02;;;-0.20;98.10;;;;;;4925221;29;20044;-77
2021/01/24 03:17:03;;;;;;;14.88;7.55;;;-0.10;97.80;;;;;;4924731;29;20031;-77
2021/01/24 03:19:30;;;;;;;18.42;7.32;;;-0.10;97.60;;;;;;4923034;29;20020;-77
2021/01/24 03:21:58;;;;;;;23.23;8.52;;;-0.10;97.60;;;;;;4924696;29;20394;-77
2021/01/24 03:24:25;;;;;;;15.27;7.63;;;0.00;97.40;;;;;;4919345;29;20032;-76
2021/01/24 03:26:51;;;;;;;11.85;5.97;;;0.10;97.50;;;;;;4915593;29;20032;-76
2021/01/24 03:29:18;;;;;;;18.63;6.85;;;0.20;97.00;;;;;;4915822;29;20036;-77
2021/01/24 03:31:45;;;;;;;10.77;5.82;;;0.30;96.80;;;;;;4915638;29;20024;-76
2021/01/24 03:34:20;;;;;;;13.45;5.93;;;0.30;96.70;;;;;;4917851;29;20100;-76
2021/01/24 03:36:50;;;;;;;14.35;6.20;;;0.40;96.60;;;;;;4917659;29;20028;-76
2021/01/24 03:39:16;;;;;;;17.08;6.10;;;0.40;96.50;;;;;;4916991;29;20063;-76
2021/01/24 03:41:42;;;;;;;16.13;5.55;;;0.40;96.20;;;;;;4916516;29;20509;-77
2021/01/24 03:44:08;;;;;;;14.57;6.40;;;0.50;96.20;;;;;;4915588;29;20028;-76
2021/01/24 03:46:35;;;;;;;22.88;6.75;;;0.50;96.00;;;;;;4916536;29;20028;-76
2021/01/24 03:49:01;;;;;;;14.60;6.40;;;0.50;96.00;;;;;;4914989;29;20039;-77
2021/01/24 03:51:28;;;;;;;16.52;6.47;;;0.50;96.10;;;;;;4915086;29;20095;-77
2021/01/24 03:53:54;;;;;;;15.52;5.55;;;0.50;96.20;;;;;;4917391;29;20119;-76
2021/01/24 03:56:20;;;;;;;11.63;5.40;;;0.40;96.20;;;;;;4911491;29;20035;-76
2021/01/24 03:58:46;;;;;;;18.48;6.25;;;0.50;96.10;;;;;;4917272;29;20032;-76
2021/01/24 04:01:11;;;;;;;11.63;5.97;;;0.50;95.90;;;;;;4917114;29;20036;-77
2021/01/24 04:03:37;;;;;;;15.35;6.35;;;0.50;96.00;;;;;;4917937;29;20603;-76
2021/01/24 04:06:03;;;;;;;13.38;6.05;;;0.50;96.00;;;;;;4918297;29;20032;-76
2021/01/24 04:08:29;;;;;;;12.55;5.68;;;0.60;95.80;;;;;;4911954;29;20032;-76
2021/01/24 04:10:55;;;;;;;10.77;5.60;;;0.60;95.60;;;;;;4910387;29;20028;-76
2021/01/24 04:13:21;;;;;;;12.70;6.45;;;0.60;95.30;;;;;;4915964;29;20028;-76
2021/01/24 04:15:47;;;;;;;16.70;5.32;;;0.70;95.50;;;;;;4912822;29;20039;-76
2021/01/24 04:18:13;;;;;;;10.73;5.13;;;0.60;94.80;;;;;;4912947;29;20414;-77
2021/01/24 04:20:39;;;;;;;12.60;5.43;;;0.70;95.20;;;;;;4915619;29;20107;-77
2021/01/24 04:23:05;;;;;;;12.75;4.50;;;0.70;95.20;;;;;;4909157;29;20044;-76
2021/01/24 04:25:31;;;;;;;;;;;0.70;95.20;;;;;;4917479;29;20020;-76
2021/01/24 04:27:56;;;;;;;12.10;5.10;;;0.70;94.80;;;;;;4916877;29;20369;-76
2021/01/24 04:30:23;;;;;;;10.07;5.25;;;0.70;94.80;;;;;;4915794;29;20028;-76
2021/01/24 04:32:48;;;;;;;;;;;0.80;94.70;;;;;;4917333;29;20060;-76
2021/01/24 04:35:14;;;;;;;17.95;4.70;;;0.80;94.60;;;;;;4911921;29;19966;-76
2021/01/24 04:37:40;;;;;;;16.95;5.10;;;0.80;94.70;;;;;;4920287;29;20024;-77
2021/01/24 04:40:06;;;;;;;11.07;4.65;;;0.80;94.50;;;;;;4923609;29;20106;-77
2021/01/24 04:42:32;;;;;;;17.20;4.85;;;0.80;94.80;;;;;;4916984;29;20381;-77
2021/01/24 04:44:58;;;;;;;8.32;4.20;;;0.80;94.70;;;;;;4916633;29;20028;-77
2021/01/24 04:47:24;;;;;;;;;;;0.90;94.80;;;;;;4916704;29;20033;-77
2021/01/24 04:49:50;;;;;;;11.97;4.30;;;0.90;95.00;;;;;;4912131;29;20341;-77
2021/01/24 04:52:16;;;;;;;9.00;4.60;;;1.00;94.10;;;;;;4915874;29;20020;-76
2021/01/24 04:54:42;;;;;;;;;;;1.00;94.30;;;;;;4915358;29;20044;-76
2021/01/24 04:57:10;;;;;;;12.50;4.07;;;1.00;94.70;;;;;;4914298;29;19911;-77
2021/01/24 04:59:35;;;;;;;10.65;4.32;;;1.10;94.30;;;;;;4917105;29;20032;-77
2021/01/24 05:02:02;;;;;;;8.18;3.78;;;1.10;93.80;;;;;;4920195;29;20031;-77
2021/01/24 05:04:28;;;;;;;10.25;3.42;;;1.10;94.30;;;;;;4904738;29;20032;-77
2021/01/24 05:06:54;;;;;;;8.35;3.22;;;1.20;94.70;;;;;;4909212;29;20548;-77
2021/01/24 05:09:22;;;;;;;10.52;3.38;;;1.20;94.30;;;;;;4906459;29;20172;-76
2021/01/24 05:11:50;;;;;;;8.73;3.65;;;1.20;94.10;;;;;;4911713;29;20502;-77
2021/01/24 05:14:22;;;;;;;7.15;3.60;;;1.20;94.20;;;;;;4915996;29;20028;-76
2021/01/24 05:16:49;;;;;;;16.08;3.88;;;1.20;94.10;;;;;;4914114;29;20438;-76
2021/01/24 05:19:15;;;;;;;12.52;3.67;;;1.20;93.70;;;;;;4911018;29;20524;-77
2021/01/24 05:21:41;;;;;;;8.18;3.60;;;1.30;94.10;;;;;;4919256;29;20036;-77
2021/01/24 05:24:17;;;;;;;10.45;2.90;;;1.20;94.30;;;;;;4917200;29;20115;-77
2021/01/24 05:26:53;;;;;;;9.43;3.28;;;1.30;94.60;;;;;;4907414;29;20040;-76
2021/01/24 05:29:24;;;;;;;11.30;3.97;;;1.30;94.20;;;;;;4911627;29;20028;-77
2021/01/24 05:31:54;;;;;;;7.95;2.70;;;1.30;94.40;;;;;;4908667;29;20460;-77
2021/01/24 05:34:26;;;;;;;9.07;3.03;;;1.30;94.80;;;;;;4911534;29;20028;-76
2021/01/24 05:36:53;;;;;;;7.68;3.35;;;1.30;94.40;;;;;;4903012;29;20090;-76
2021/01/24 05:39:20;;;;;;;6.93;2.95;;;1.20;94.90;;;;;;4909568;29;20120;-76
2021/01/24 05:41:51;;;;;;;12.73;3.40;;;1.20;95.70;;;;;;4908682;29;20017;-77
2021/01/24 05:44:19;;;;;;;8.35;3.28;;;1.10;96.50;;;;;;4906147;29;20536;-77
2021/01/24 05:46:45;;;;;;;7.35;4.05;;;0.90;97.10;;;;;;4933452;29;20055;-76
2021/01/24 05:49:19;;;;;;;8.73;3.92;;;0.90;97.70;;;;;;4913107;29;20080;-76
2021/01/24 05:52:08;;;;;;;11.07;3.63;;;0.80;98.10;;;;;;4915083;29;20028;-76
2021/01/24 05:54:45;;;;;;;12.50;3.88;;;0.80;98.30;;;;;;4908534;29;20092;-76
2021/01/24 05:57:12;;;;;;;13.70;3.65;;;0.80;98.50;;;;;;4913644;29;20020;-76
2021/01/24 05:59:54;;;;;;;7.25;3.63;;;0.70;98.70;;;;;;4915810;29;20020;-76
2021/01/24 06:02:22;;;;;;;11.55;4.18;;;0.70;98.90;;;;;;4913639;29;20047;-76
2021/01/24 06:04:50;;;;;;;7.95;4.38;;;0.70;99.20;;;;;;4915081;29;20028;-76
2021/01/24 06:07:18;;;;;;;8.02;4.15;;;0.70;99.30;;;;;;4929379;29;20091;-76
2021/01/24 06:09:44;;;;;;;8.55;4.40;;;0.70;99.50;;;;;;4902211;29;20031;-76
2021/01/24 06:12:12;;;;;;;10.27;4.22;;;0.70;99.50;;;;;;4907151;29;20047;-76
2021/01/24 06:14:40;;;;;;;8.23;4.72;;;0.70;99.60;;;;;;4899673;29;20230;-76
2021/01/24 06:17:15;;;;;;;8.13;4.60;;;0.70;99.60;;;;;;4914819;29;20059;-76
2021/01/24 06:19:48;;;;;;;14.90;5.32;;;0.70;99.70;;;;;;4901198;29;20024;-76
2021/01/24 06:22:18;;;;;;;11.00;4.82;;;0.70;99.80;;;;;;4913986;29;20032;-76
2021/01/24 06:24:50;;;;;;;8.27;4.65;;;0.70;99.90;;;;;;4919745;29;20056;-76
2021/01/24 06:27:20;;;;;;;10.90;5.72;;;0.70;99.90;;;;;;4915647;29;20401;-76
2021/01/24 06:29:49;;;;;;;12.82;4.90;;;0.60;99.90;;;;;;4914256;29;20055;-76
2021/01/24 06:32:30;;;;;;;9.75;5.20;;;0.60;99.90;;;;;;4908604;29;20071;-76
2021/01/24 06:35:20;;;;;;;11.43;5.97;;;0.70;99.90;;;;;;4907856;29;20046;-76
2021/01/24 06:37:59;;;;;;;7.75;5.57;;;0.70;99.90;;;;;;4903124;29;20029;-76
2021/01/24 06:40:31;;;;;;;10.25;5.45;;;0.60;99.90;;;;;;4910657;29;20107;-76
2021/01/24 06:43:05;;;;;;;11.73;5.30;;;0.60;99.90;;;;;;4912981;29;20481;-76
2021/01/24 06:45:31;;;;;;;10.18;5.45;;;0.70;99.90;;;;;;4913995;29;20474;-76
2021/01/24 06:48:02;;;;;;;9.00;5.35;;;0.70;99.90;;;;;;4909158;29;20129;-76
2021/01/24 06:50:47;;;;;;;14.77;6.40;;;0.70;99.90;;;;;;4902136;29;20028;-76
2021/01/24 06:53:21;;;;;;;11.68;4.75;;;0.70;99.90;;;;;;4900562;29;20024;-76
2021/01/24 06:56:01;;;;;;;14.48;6.28;;;0.80;99.90;;;;;;4904136;29;20047;-76
2021/01/24 06:58:31;;;;;;;46.90;20.35;;;0.70;99.90;;;;;;4913504;29;20406;-76
2021/01/24 07:01:19;;;;;;;19.10;10.85;;;0.70;99.90;;;;;;4904967;29;20040;-76
2021/01/24 07:03:45;;;;;;;12.15;6.32;;;0.70;99.90;;;;;;4897102;29;20024;-76
2021/01/24 07:06:30;;;;;;;14.68;5.38;;;0.70;99.90;;;;;;4909022;29;20024;-77
2021/01/24 07:08:56;;;;;;;14.93;5.90;;;0.80;99.90;;;;;;4897208;29;20084;-77
2021/01/24 07:11:52;;;;;;;10.23;5.18;;;0.70;99.90;;;;;;4908942;29;20032;-77
2021/01/24 07:14:33;;;;;;;10.68;5.10;;;0.80;99.90;;;;;;4906864;29;20071;-77
2021/01/24 07:17:10;;;;;;;10.75;5.47;;;0.80;99.90;;;;;;4910950;29;20032;-76
2021/01/24 07:19:48;;;;;;;7.95;5.28;;;0.90;99.90;;;;;;4901401;29;20058;-76
2021/01/24 07:22:16;;;;;;;7.30;4.40;;;0.90;99.90;;;;;;4914896;29;20123;-77
2021/01/24 07:24:43;;;;;;;8.50;4.57;;;0.90;99.90;;;;;;4911493;29;20035;-76
2021/01/24 07:27:14;;;;;;;8.13;4.40;;;1.00;99.90;;;;;;4920445;29;20040;-76
2021/01/24 07:29:39;;;;;;;6.85;4.50;;;1.00;99.90;;;;;;4909652;29;20394;-77
2021/01/24 07:32:10;;;;;;;12.00;5.40;;;1.00;99.90;;;;;;4912526;29;20044;-77
2021/01/24 07:34:36;;;;;;;6.07;4.28;;;1.00;99.90;;;;;;4924466;29;20032;-76
2021/01/24 07:37:05;;;;;;;5.03;4.00;;;1.00;99.90;;;;;;4906873;29;20482;-76
2021/01/24 07:39:32;;;;;;;7.05;4.30;;;0.90;99.90;;;;;;4912538;29;20028;-76
2021/01/24 07:41:58;;;;;;;6.10;4.00;;;0.90;99.90;;;;;;4896523;29;20017;-77
2021/01/24 07:44:24;;;;;;;;;;;1.00;99.90;;;;;;4899046;29;20105;-77
2021/01/24 07:46:50;;;;;;;6.28;3.88;;;0.90;99.90;;;;;;4895671;29;19994;-77
2021/01/24 07:49:17;;;;;;;5.80;4.00;;;0.90;99.90;;;;;;4907434;29;20025;-76
2021/01/24 07:51:44;;;;;;;6.65;4.50;;;0.90;99.90;;;;;;4905145;29;20033;-76
2021/01/24 07:54:10;;;;;;;12.15;4.30;;;0.90;99.90;;;;;;4900603;29;20037;-78
2021/01/24 07:56:37;;;;;;;7.78;4.75;;;0.90;99.90;;;;;;4912679;29;20112;-76
2021/01/24 07:59:03;;;;;;;10.23;4.65;;;1.00;99.90;;;;;;4916495;29;20028;-77
2021/01/24 08:01:29;;;;;;;5.75;3.97;;;1.00;99.90;;;;;;4918383;29;20399;-77
2021/01/24 08:03:55;;;;;;;6.47;4.22;;;1.00;99.90;;;;;;4918077;29;20057;-77
2021/01/24 08:06:21;;;;;;;15.90;5.43;;;1.00;99.90;;;;;;4912787;29;20029;-77
2021/01/24 08:08:47;;;;;;;7.93;3.75;;;1.00;99.90;;;;;;4919584;29;20478;-77
2021/01/24 08:11:13;;;;;;;;;;;1.00;99.90;;;;;;4907238;29;20036;-78
2021/01/24 08:13:41;;;;;;;8.40;4.05;;;1.00;99.90;;;;;;4903813;29;19919;-77
2021/01/24 08:16:11;;;;;;;9.77;4.30;;;1.00;99.90;;;;;;4924433;29;20368;-76
2021/01/24 08:18:39;;;;;;;6.72;3.90;;;1.00;99.90;;;;;;4901974;29;20029;-77
2021/01/24 08:21:05;;;;;;;7.47;4.22;;;1.00;99.90;;;;;;4911598;29;20088;-77
2021/01/24 08:23:31;;;;;;;4.93;3.72;;;1.00;99.90;;;;;;4909392;29;20035;-77
2021/01/24 08:25:58;;;;;;;5.40;3.97;;;1.10;99.90;;;;;;4929314;29;20032;-77
2021/01/24 08:28:27;;;;;;;8.40;4.47;;;1.10;99.90;;;;;;4915483;29;20028;-76
2021/01/24 08:30:53;;;;;;;5.75;4.35;;;1.10;99.90;;;;;;4924770;29;20036;-77
2021/01/24 08:33:19;;;;;;;5.63;4.35;;;1.10;99.90;;;;;;4917924;29;20028;-77
2021/01/24 08:35:45;;;;;;;;;;;1.10;99.90;;;;;;4918627;29;20040;-77
2021/01/24 08:38:13;;;;;;;5.75;4.00;;;1.10;99.90;;;;;;4917653;29;19915;-77
2021/01/24 08:40:40;;;;;;;11.27;6.90;;;1.20;99.90;;;;;;4919262;29;20052;-77
2021/01/24 08:43:06;;;;;;;21.45;9.05;;;1.20;99.90;;;;;;4906449;29;20120;-77
2021/01/24 08:45:32;;;;;;;13.30;6.22;;;1.20;99.90;;;;;;4910712;29;20401;-77
2021/01/24 08:48:00;;;;;;;7.05;4.45;;;1.20;99.90;;;;;;4899798;29;20029;-78
2021/01/24 08:53:04;;;;;;;8.13;4.43;;;1.30;99.90;;;;;;5284509;23;20096;-85
2021/01/24 08:55:30;;;;;;;6.53;4.10;;;1.00;99.90;;;;;;5840360;23;20056;-83
2021/01/24 09:08:30;;;;;;;10.32;5.88;;;1.40;99.60;;;;;;5333118;23;20112;-84
2021/01/24 09:13:31;;;;;;;13.00;6.75;;;1.50;99.60;;;;;;5382821;23;20043;-83
2021/01/24 09:16:00;;;;;;;9.77;5.82;;;1.60;99.80;;;;;;4941880;29;20056;-81
2021/01/24 09:18:26;;;;;;;12.60;5.30;;;1.60;99.80;;;;;;5322580;23;20078;-82
2021/01/24 09:23:17;;;;;;;6.15;3.90;;;1.80;99.20;;;;;;5692919;23;20662;-77
2021/01/24 09:28:19;;;;;;;5.45;4.13;;;1.80;98.80;;;;;;5475950;23;19907;-83
2021/01/24 09:33:20;;;;;;;9.07;4.63;;;2.00;98.80;;;;;;5129087;23;20048;-84
2021/01/24 09:35:46;;;;;;;9.60;5.15;;;2.00;99.10;;;;;;5116990;23;20043;-82
2021/01/24 10:01:30;;;;;;;5.75;4.50;;;2.90;96.70;;;;;;5860732;23;20044;-81
2021/01/24 10:29:44;;;;;;;9.65;5.47;;;2.80;97.90;;;;;;4919854;29;20063;-83
2021/01/24 10:32:10;;;;;;;14.13;7.47;;;2.80;98.50;;;;;;4918772;29;20052;-83
2021/01/24 10:34:36;;;;;;;12.48;7.20;;;2.90;98.50;;;;;;4929837;29;20047;-84
2021/01/24 10:37:02;;;;;;;12.07;7.00;;;3.10;98.90;;;;;;4937596;29;20016;-85
2021/01/24 10:39:27;;;;;;;12.80;6.78;;;3.40;98.30;;;;;;4920351;29;20033;-84
2021/01/24 10:41:56;;;;;;;10.57;6.22;;;3.50;97.70;;;;;;4920222;29;20092;-85
2021/01/24 10:44:22;;;;;;;10.05;7.18;;;3.60;97.40;;;;;;4920022;29;20098;-84
2021/01/24 10:46:48;;;;;;;13.38;7.25;;;3.60;96.50;;;;;;4917138;29;20029;-84
2021/01/24 10:49:15;;;;;;;9.82;6.10;;;3.60;97.00;;;;;;4905459;29;20084;-84
2021/01/24 10:51:41;;;;;;;8.15;5.72;;;3.60;96.50;;;;;;4923727;23;20146;-77
2021/01/24 10:54:06;;;;;;;10.02;5.97;;;3.70;96.40;;;;;;4917811;29;20474;-75
2021/01/24 10:56:32;;;;;;;5.95;4.25;;;3.70;96.80;;;;;;4914724;29;20029;-76
2021/01/24 10:58:58;;;;;;;8.02;4.88;;;3.70;96.60;;;;;;4912555;29;20079;-77
2021/01/24 11:01:23;;;;;;;6.90;5.15;;;4.00;96.70;;;;;;4914267;29;20390;-76
2021/01/24 11:03:49;;;;;;;6.25;4.50;;;4.30;95.90;;;;;;4914667;29;20378;-76
2021/01/24 11:06:14;;;;;;;7.05;4.85;;;4.30;95.60;;;;;;4910021;29;20083;-77
2021/01/24 11:08:40;;;;;;;6.65;4.90;;;4.30;95.40;;;;;;4909832;29;20020;-76
2021/01/24 11:11:06;;;;;;;7.13;4.65;;;4.20;95.40;;;;;;4911068;29;20524;-76
2021/01/24 11:13:32;;;;;;;12.35;4.72;;;4.20;95.70;;;;;;4898302;29;20033;-75
2021/01/24 11:15:57;;;;;;;6.28;4.70;;;4.00;95.20;;;;;;4898138;29;20391;-75
2021/01/24 11:18:23;;;;;;;8.85;5.60;;;3.90;95.70;;;;;;4899190;29;20045;-76
2021/01/24 11:20:49;;;;;;;5.95;5.03;;;3.70;96.30;;;;;;4906249;29;20020;-76
2021/01/24 11:23:14;;;;;;;9.32;5.70;;;3.60;96.00;;;;;;4910303;29;20036;-76
2021/01/24 11:25:40;;;;;;;11.57;5.40;;;3.50;96.70;;;;;;4924936;29;20083;-76
2021/01/24 11:28:06;;;;;;;8.18;5.35;;;3.60;96.80;;;;;;4916424;29;20087;-76
2021/01/24 11:30:32;;;;;;;8.23;5.90;;;3.60;96.70;;;;;;4901901;29;20033;-76
2021/01/24 11:32:59;;;;;;;9.43;5.57;;;3.60;96.60;;;;;;4905620;29;20119;-76
2021/01/24 11:35:25;;;;;;;8.85;6.07;;;3.60;96.50;;;;;;4915623;29;20024;-78
2021/01/24 11:37:51;;;;;;;8.80;6.40;;;3.50;96.50;;;;;;4912000;29;20036;-77
2021/01/24 11:40:17;;;;;;;10.93;7.32;;;3.60;97.00;;;;;;4909514;29;20039;-77
2021/01/24 11:42:42;;;;;;;9.02;6.65;;;3.70;96.90;;;;;;4910304;29;20036;-78
2021/01/24 11:45:08;;;;;;;9.23;5.78;;;3.70;97.00;;;;;;4910552;29;20032;-78
2021/01/24 11:47:35;;;;;;;;;;;3.70;96.80;;;;;;4908577;29;20392;-77
2021/01/24 11:50:01;;;;;;;10.32;7.82;;;3.70;96.70;;;;;;4920530;29;19935;-78
2021/01/24 11:52:27;;;;;;;17.13;11.15;;;3.70;96.90;;;;;;4917974;29;20043;-77
2021/01/24 11:54:52;;;;;;;15.15;11.65;;;3.70;97.30;;;;;;4915831;29;20036;-77
2021/01/24 11:57:18;;;;;;;13.40;9.80;;;3.80;97.30;;;;;;4917123;29;20031;-78
2021/01/24 11:59:44;;;;;;;11.77;8.98;;;3.80;97.00;;;;;;4915156;29;20028;-79
2021/01/24 12:02:10;;;;;;;13.27;9.38;;;3.90;97.30;;;;;;4915162;29;20092;-78
2021/01/24 12:04:35;;;;;;;;;;;4.10;97.20;;;;;;4918123;29;20043;-77
2021/01/24 12:07:01;;;;;;;14.35;9.63;;;4.10;96.80;;;;;;4924591;29;19911;-76
2021/01/24 12:09:27;;;;;;;23.35;13.32;;;4.10;96.70;;;;;;4914165;29;20047;-77
2021/01/24 12:11:53;;;;;;;50.05;24.02;;;4.10;96.50;;;;;;4917177;29;20040;-77
2021/01/24 12:14:18;;;;;;;24.30;13.45;;;4.00;96.80;;;;;;4926361;29;20036;-77
2021/01/24 12:16:44;;;;;;;59.15;31.52;;;4.00;97.10;;;;;;4912894;29;20039;-78
2021/01/24 12:19:10;;;;;;;34.95;19.85;;;4.00;97.00;;;;;;4919417;29;20036;-76
2021/01/24 12:21:35;;;;;;;35.08;19.92;;;4.00;96.80;;;;;;4910750;29;20067;-77
2021/01/24 12:24:02;;;;;;;21.23;12.43;;;4.10;97.00;;;;;;4917922;29;20100;-76
2021/01/24 12:26:29;;;;;;;14.23;9.55;;;4.50;96.10;;;;;;4905581;29;20393;-77
2021/01/24 12:28:54;;;;;;;12.88;8.98;;;4.90;95.10;;;;;;4906479;29;20397;-77
2021/01/24 12:31:20;;;;;;;13.75;9.02;;;5.70;93.80;;;;;;4901696;29;20036;-77
2021/01/24 12:33:46;;;;;;;8.93;5.47;;;6.60;92.10;;;;;;4918107;29;20040;-78
2021/01/24 12:36:11;;;;;;;6.75;4.78;;;7.40;89.10;;;;;;4912065;29;20029;-78
2021/01/24 12:38:37;;;;;;;6.03;4.28;;;8.30;86.20;;;;;;4906777;29;20039;-77
2021/01/24 12:41:03;;;;;;;5.85;3.50;;;9.20;83.30;;;;;;4918645;29;20024;-78
2021/01/24 12:43:28;;;;;;;;;;;9.90;77.70;;;;;;4920571;29;20040;-78
2021/01/24 12:45:54;;;;;;;5.07;2.78;;;10.60;73.40;;;;;;4900651;29;19907;-79
2021/01/24 12:48:20;;;;;;;;;;;10.60;76.50;;;;;;4898324;29;20029;-79
2021/01/24 12:50:52;;;;;;;4.50;2.60;;;11.10;74.00;;;;;;4904612;29;20313;-78
2021/01/24 12:53:17;;;;;;;5.07;2.20;;;10.80;73.90;;;;;;4904524;29;20433;-78
2021/01/24 12:55:43;;;;;;;;;;;10.40;73.90;;;;;;4908116;29;20025;-77
2021/01/24 12:58:09;;;;;;;3.65;2.45;;;9.80;77.30;;;;;;4914357;29;19912;-78
2021/01/24 13:00:35;;;;;;;;;;;9.20;78.30;;;;;;4917731;29;20035;-77
2021/01/24 13:03:01;;;;;;;4.67;2.80;;;8.40;82.30;;;;;;4919951;29;19907;-78
2021/01/24 13:05:27;;;;;;;4.85;2.17;;;7.10;83.20;;;;;;4927563;29;20263;-77
2021/01/24 13:07:53;;;;;;;9.55;3.13;;;7.00;87.70;;;;;;4911836;29;20100;-77
2021/01/24 13:10:18;;;;;;;6.07;3.15;;;6.10;90.40;;;;;;4918093;29;20052;-77
2021/01/24 13:12:44;;;;;;;5.85;2.75;;;5.90;91.70;;;;;;4929845;29;20044;-77
2021/01/24 13:15:10;;;;;;;6.53;3.25;;;5.70;92.80;;;;;;4916047;29;20091;-77
2021/01/24 13:17:36;;;;;;;5.55;3.38;;;5.60;93.30;;;;;;4929896;29;20227;-77
2021/01/24 13:20:03;;;;;;;4.88;2.97;;;5.60;93.10;;;;;;4925580;29;20039;-77
2021/01/24 13:22:29;;;;;;;7.35;3.90;;;5.50;93.20;;;;;;4921263;29;20024;-78
2021/01/24 13:24:55;;;;;;;5.38;3.45;;;5.50;93.20;;;;;;4933239;29;20091;-77
2021/01/24 13:27:21;;;;;;;9.00;3.67;;;5.30;93.30;;;;;;4918806;29;20036;-78
2021/01/24 13:29:46;;;;;;;4.68;2.80;;;5.20;93.60;;;;;;4931436;29;20032;-78
2021/01/24 13:32:12;;;;;;;6.28;4.15;;;5.20;93.30;;;;;;4930087;29;20165;-78
2021/01/24 13:34:38;;;;;;;6.55;3.47;;;5.00;94.20;;;;;;4924966;29;20032;-78
2021/01/24 13:37:04;;;;;;;5.38;3.40;;;5.10;93.80;;;;;;4920329;29;20092;-78
2021/01/24 13:39:29;;;;;;;5.40;3.35;;;5.00;94.20;;;;;;4916892;29;20103;-78
2021/01/24 13:41:55;;;;;;;3.58;2.53;;;5.30;93.50;;;;;;4926462;29;20044;-78
2021/01/24 13:44:21;;;;;;;4.18;2.47;;;5.90;92.80;;;;;;4923204;29;20031;-78
2021/01/24 13:46:46;;;;;;;10.10;3.70;;;6.80;91.60;;;;;;4917828;29;20051;-77
2021/01/24 13:49:12;;;;;;;6.30;3.15;;;7.30;89.70;;;;;;4898305;29;20489;-77
2021/01/24 13:51:38;;;;;;;8.70;4.38;;;7.40;85.50;;;;;;4900397;29;20116;-77
2021/01/24 13:54:04;;;;;;;5.95;2.92;;;7.30;87.20;;;;;;4915129;29;20058;-76
2021/01/24 13:56:30;;;;;;;;;;;7.00;87.90;;;;;;4906358;29;20024;-77
2021/01/24 13:58:56;;;;;;;4.05;2.50;;;6.70;90.40;;;;;;4900183;29;19907;-77
2021/01/24 14:01:21;;;;;;;6.38;2.67;;;6.40;90.50;;;;;;4899808;29;20667;-77
2021/01/24 14:03:47;;;;;;;1.77;1.42;;;6.10;90.70;;;;;;4914955;29;20410;-77
2021/01/24 14:06:13;;;;;;;3.42;1.70;;;5.90;90.50;;;;;;4915157;29;20036;-77
2021/01/24 14:08:38;;;;;;;2.47;1.80;;;6.00;90.70;;;;;;4914773;29;20035;-77